JST418 YSSY-YBCG
Flight info
| Callsign | JST418 |
|---|---|
| Flight time | 1h 0m |
| Altitude | 35000 |
| Route | OLSEM Y193 BANDA Y43 GOMOL |
| Aircraft | A320/M-SDE3FGHIRWY/LB1 |
Departure
| Time | 2026-05-06 09:07 |
|---|---|
| Airport | Sydney Kingsford Smith International Airport (YSSY) |
Arrival
| Time | 2026-05-06 10:07 |
|---|---|
| Airport | Gold Coast Airport (YBCG) |
| Time | Latitude | Longitude | Altitude | Speed | Heading |
|---|---|---|---|---|---|
| 2026-05-06 08:49 | -33.93515 | 151.17697 | 29 ft | 0 kts | 101° |
| 2026-05-06 08:58 | -33.93512 | 151.17672 | 30 ft | 4 kts | 90° |
| 2026-05-06 08:58 | -33.93513 | 151.17640 | 30 ft | 4 kts | 90° |
| 2026-05-06 08:58 | -33.93510 | 151.17614 | 30 ft | 4 kts | 111° |
| 2026-05-06 08:58 | -33.93495 | 151.17590 | 30 ft | 4 kts | 158° |
| 2026-05-06 08:59 | -33.93478 | 151.17584 | 30 ft | 0 kts | 167° |
| 2026-05-06 09:00 | -33.93502 | 151.17590 | 30 ft | 9 kts | 167° |
| 2026-05-06 09:00 | -33.93602 | 151.17617 | 30 ft | 20 kts | 168° |
| 2026-05-06 09:01 | -33.93749 | 151.17685 | 30 ft | 24 kts | 166° |
| 2026-05-06 09:01 | -33.93849 | 151.17732 | 30 ft | 0 kts | 141° |
| 2026-05-06 09:01 | -33.93860 | 151.17743 | 30 ft | 8 kts | 137° |
| 2026-05-06 09:01 | -33.93969 | 151.17801 | 29 ft | 27 kts | 169° |
| 2026-05-06 09:02 | -33.94197 | 151.17851 | 30 ft | 36 kts | 168° |
| 2026-05-06 09:02 | -33.94439 | 151.17908 | 30 ft | 32 kts | 187° |
| 2026-05-06 09:02 | -33.94641 | 151.17914 | 30 ft | 29 kts | 168° |
| 2026-05-06 09:02 | -33.94848 | 151.17968 | 30 ft | 31 kts | 168° |
| 2026-05-06 09:03 | -33.95049 | 151.18020 | 30 ft | 26 kts | 162° |
| 2026-05-06 09:03 | -33.95082 | 151.18208 | 30 ft | 26 kts | 78° |
| 2026-05-06 09:03 | -33.95047 | 151.18416 | 30 ft | 25 kts | 78° |
| 2026-05-06 09:03 | -33.95134 | 151.18568 | 30 ft | 25 kts | 142° |
| 2026-05-06 09:04 | -33.95278 | 151.18700 | 30 ft | 28 kts | 151° |
| 2026-05-06 09:04 | -33.95485 | 151.18763 | 30 ft | 35 kts | 168° |
| 2026-05-06 09:04 | -33.95729 | 151.18826 | 30 ft | 37 kts | 167° |
| 2026-05-06 09:04 | -33.95983 | 151.18895 | 30 ft | 38 kts | 167° |
| 2026-05-06 09:05 | -33.96248 | 151.18963 | 30 ft | 39 kts | 167° |
| 2026-05-06 09:05 | -33.96521 | 151.19040 | 30 ft | 41 kts | 167° |
| 2026-05-06 09:05 | -33.96772 | 151.19067 | 30 ft | 36 kts | 184° |
| 2026-05-06 09:05 | -33.97020 | 151.19110 | 30 ft | 28 kts | 170° |
| 2026-05-06 09:06 | -33.97120 | 151.19243 | 29 ft | 25 kts | 82° |
| 2026-05-06 09:06 | -33.97073 | 151.19367 | 28 ft | 12 kts | 11° |
| 2026-05-06 09:06 | -33.96853 | 151.19317 | 24 ft | 68 kts | 348° |
| 2026-05-06 09:06 | -33.96146 | 151.19134 | 28 ft | 135 kts | 347° |
| 2026-05-06 09:07 | -33.95062 | 151.18858 | 207 ft | 171 kts | 347° |
| 2026-05-06 09:07 | -33.93918 | 151.18601 | 1094 ft | 165 kts | 0° |
| 2026-05-06 09:07 | -33.92902 | 151.19140 | 1872 ft | 169 kts | 49° |
| 2026-05-06 09:07 | -33.92240 | 151.20373 | 2336 ft | 184 kts | 50° |
| 2026-05-06 09:08 | -33.91142 | 151.21262 | 2611 ft | 203 kts | 20° |
| 2026-05-06 09:08 | -33.89821 | 151.22072 | 2925 ft | 228 kts | 29° |
| 2026-05-06 09:08 | -33.88411 | 151.23172 | 3398 ft | 253 kts | 32° |
| 2026-05-06 09:08 | -33.86922 | 151.24396 | 4182 ft | 264 kts | 32° |
| 2026-05-06 09:09 | -33.85377 | 151.25660 | 5077 ft | 271 kts | 32° |
| 2026-05-06 09:09 | -33.83869 | 151.27065 | 5970 ft | 280 kts | 46° |
| 2026-05-06 09:09 | -33.82858 | 151.29085 | 6868 ft | 287 kts | 70° |
| 2026-05-06 09:09 | -33.82208 | 151.31373 | 7758 ft | 290 kts | 62° |
| 2026-05-06 09:10 | -33.80886 | 151.33176 | 8593 ft | 289 kts | 30° |
| 2026-05-06 09:10 | -33.79036 | 151.34091 | 9493 ft | 288 kts | 13° |
| 2026-05-06 09:10 | -33.77108 | 151.34809 | 10300 ft | 296 kts | 15° |
| 2026-05-06 09:10 | -33.75105 | 151.35612 | 10595 ft | 319 kts | 16° |
| 2026-05-06 09:11 | -33.72932 | 151.36523 | 10904 ft | 339 kts | 17° |
| 2026-05-06 09:11 | -33.70675 | 151.37493 | 11528 ft | 347 kts | 17° |
| 2026-05-06 09:11 | -33.68389 | 151.38485 | 12254 ft | 351 kts | 17° |
| 2026-05-06 09:11 | -33.66075 | 151.39490 | 12981 ft | 355 kts | 17° |
| 2026-05-06 09:12 | -33.63728 | 151.40506 | 13700 ft | 359 kts | 17° |
| 2026-05-06 09:12 | -33.61353 | 151.41526 | 14359 ft | 363 kts | 17° |
| 2026-05-06 09:12 | -33.58985 | 151.42537 | 14977 ft | 367 kts | 16° |
| 2026-05-06 09:12 | -33.56561 | 151.43567 | 15614 ft | 371 kts | 16° |
| 2026-05-06 09:13 | -33.54116 | 151.44601 | 16219 ft | 375 kts | 16° |
| 2026-05-06 09:13 | -33.51635 | 151.45654 | 16831 ft | 379 kts | 16° |
| 2026-05-06 09:13 | -33.49136 | 151.46712 | 17448 ft | 382 kts | 16° |
| 2026-05-06 09:13 | -33.46608 | 151.47781 | 18073 ft | 386 kts | 16° |
| 2026-05-06 09:14 | -33.44063 | 151.48858 | 18663 ft | 390 kts | 16° |
| 2026-05-06 09:14 | -33.42365 | 151.49576 | 19039 ft | 392 kts | 16° |
| 2026-05-06 09:14 | -33.38907 | 151.51036 | 19824 ft | 395 kts | 16° |
| 2026-05-06 09:14 | -33.37185 | 151.51764 | 20216 ft | 397 kts | 16° |
| 2026-05-06 09:15 | -33.34568 | 151.52872 | 20795 ft | 399 kts | 16° |
| 2026-05-06 09:15 | -33.31936 | 151.53986 | 21355 ft | 402 kts | 16° |
| 2026-05-06 09:15 | -33.29289 | 151.55103 | 21892 ft | 405 kts | 15° |
| 2026-05-06 09:15 | -33.26620 | 151.56231 | 22412 ft | 407 kts | 15° |
| 2026-05-06 09:16 | -33.23934 | 151.57364 | 22932 ft | 410 kts | 15° |
| 2026-05-06 09:16 | -33.21234 | 151.58504 | 23448 ft | 413 kts | 15° |
| 2026-05-06 09:16 | -33.18548 | 151.59639 | 23901 ft | 416 kts | 15° |
| 2026-05-06 09:16 | -33.15809 | 151.60790 | 24320 ft | 419 kts | 15° |
| 2026-05-06 09:17 | -33.13045 | 151.61949 | 24738 ft | 421 kts | 14° |
| 2026-05-06 09:17 | -33.10270 | 151.63113 | 25158 ft | 424 kts | 14° |
| 2026-05-06 09:17 | -33.07477 | 151.64287 | 25559 ft | 427 kts | 14° |
| 2026-05-06 09:17 | -33.04667 | 151.65468 | 25960 ft | 429 kts | 14° |
| 2026-05-06 09:18 | -33.01834 | 151.66657 | 26363 ft | 432 kts | 13° |
| 2026-05-06 09:18 | -32.98993 | 151.67850 | 26761 ft | 434 kts | 13° |
| 2026-05-06 09:18 | -32.96131 | 151.69049 | 27162 ft | 437 kts | 13° |
| 2026-05-06 09:18 | -32.93248 | 151.70248 | 27561 ft | 439 kts | 13° |
| 2026-05-06 09:19 | -32.90383 | 151.71440 | 27958 ft | 442 kts | 12° |
| 2026-05-06 09:19 | -32.87472 | 151.72654 | 28353 ft | 445 kts | 12° |
| 2026-05-06 09:19 | -32.84542 | 151.73882 | 28757 ft | 447 kts | 12° |
| 2026-05-06 09:19 | -32.81591 | 151.75119 | 29139 ft | 450 kts | 12° |
| 2026-05-06 09:20 | -32.78622 | 151.76361 | 29514 ft | 452 kts | 12° |
| 2026-05-06 09:20 | -32.75646 | 151.77605 | 29896 ft | 455 kts | 12° |
| 2026-05-06 09:20 | -32.72636 | 151.78860 | 30247 ft | 457 kts | 12° |
| 2026-05-06 09:20 | -32.69626 | 151.80113 | 30606 ft | 459 kts | 11° |
| 2026-05-06 09:21 | -32.66622 | 151.81362 | 31095 ft | 457 kts | 11° |
| 2026-05-06 09:21 | -32.63622 | 151.82609 | 31589 ft | 455 kts | 11° |
| 2026-05-06 09:21 | -32.60674 | 151.83831 | 32085 ft | 453 kts | 11° |
| 2026-05-06 09:21 | -32.57704 | 151.85064 | 32591 ft | 451 kts | 11° |
| 2026-05-06 09:22 | -32.54743 | 151.86296 | 33089 ft | 450 kts | 11° |
| 2026-05-06 09:22 | -32.51798 | 151.87522 | 33607 ft | 448 kts | 11° |
| 2026-05-06 09:22 | -32.48857 | 151.88744 | 34112 ft | 446 kts | 11° |
| 2026-05-06 09:22 | -32.45930 | 151.89958 | 34564 ft | 444 kts | 11° |
| 2026-05-06 09:23 | -32.43007 | 151.91163 | 34952 ft | 444 kts | 10° |
| 2026-05-06 09:23 | -32.40079 | 151.92363 | 35067 ft | 444 kts | 10° |
| 2026-05-06 09:23 | -32.37157 | 151.93564 | 35101 ft | 444 kts | 10° |
| 2026-05-06 09:24 | -32.31256 | 151.95987 | 35094 ft | 457 kts | 11° |
| 2026-05-06 09:24 | -32.25209 | 151.98491 | 35099 ft | 460 kts | 11° |
| 2026-05-06 09:25 | -32.19153 | 152.00987 | 35098 ft | 461 kts | 11° |
| 2026-05-06 09:25 | -32.13092 | 152.03483 | 35097 ft | 460 kts | 11° |
| 2026-05-06 09:26 | -32.07067 | 152.05956 | 35097 ft | 460 kts | 11° |
| 2026-05-06 09:26 | -32.01013 | 152.08428 | 35095 ft | 460 kts | 11° |
| 2026-05-06 09:27 | -31.94962 | 152.10907 | 35090 ft | 460 kts | 11° |
| 2026-05-06 09:27 | -31.88910 | 152.13383 | 35091 ft | 460 kts | 11° |
| 2026-05-06 09:28 | -31.82848 | 152.15855 | 35090 ft | 460 kts | 11° |
| 2026-05-06 09:28 | -31.76827 | 152.18302 | 35094 ft | 460 kts | 11° |
| 2026-05-06 09:29 | -31.70768 | 152.20771 | 35097 ft | 461 kts | 11° |
| 2026-05-06 09:29 | -31.64703 | 152.23237 | 35098 ft | 461 kts | 11° |
| 2026-05-06 09:30 | -31.58642 | 152.25695 | 35103 ft | 461 kts | 11° |
| 2026-05-06 09:30 | -31.52580 | 152.28149 | 35109 ft | 461 kts | 11° |
| 2026-05-06 09:31 | -31.46516 | 152.30600 | 35110 ft | 460 kts | 11° |
| 2026-05-06 09:31 | -31.40456 | 152.33051 | 35112 ft | 460 kts | 11° |
| 2026-05-06 09:32 | -31.34435 | 152.35486 | 35107 ft | 460 kts | 11° |
| 2026-05-06 09:32 | -31.28372 | 152.37931 | 35107 ft | 460 kts | 11° |
| 2026-05-06 09:33 | -31.22303 | 152.40363 | 35102 ft | 460 kts | 10° |
| 2026-05-06 09:33 | -31.16289 | 152.42788 | 35097 ft | 460 kts | 11° |
| 2026-05-06 09:34 | -31.10211 | 152.45233 | 35098 ft | 460 kts | 11° |
| 2026-05-06 09:34 | -31.04153 | 152.47658 | 35095 ft | 460 kts | 11° |
| 2026-05-06 09:35 | -30.98088 | 152.50086 | 35091 ft | 460 kts | 11° |
| 2026-05-06 09:35 | -30.92020 | 152.52508 | 35089 ft | 461 kts | 11° |
| 2026-05-06 09:36 | -30.85982 | 152.54921 | 35094 ft | 462 kts | 11° |
| 2026-05-06 09:36 | -30.79897 | 152.57353 | 35098 ft | 462 kts | 11° |
| 2026-05-06 09:37 | -30.73852 | 152.60005 | 35099 ft | 465 kts | 14° |
| 2026-05-06 09:37 | -30.67846 | 152.62882 | 35099 ft | 467 kts | 14° |
| 2026-05-06 09:38 | -30.61827 | 152.65752 | 35098 ft | 466 kts | 14° |
| 2026-05-06 09:38 | -30.55833 | 152.68529 | 35098 ft | 466 kts | 13° |
| 2026-05-06 09:39 | -30.49789 | 152.71295 | 35093 ft | 467 kts | 13° |
| 2026-05-06 09:39 | -30.43735 | 152.74068 | 35094 ft | 467 kts | 13° |
| 2026-05-06 09:40 | -30.37681 | 152.76864 | 35097 ft | 468 kts | 13° |
| 2026-05-06 09:40 | -30.28625 | 152.81045 | 35104 ft | 469 kts | 13° |
| 2026-05-06 09:41 | -30.22556 | 152.83827 | 35112 ft | 469 kts | 13° |
| 2026-05-06 09:41 | -30.16466 | 152.86613 | 35109 ft | 469 kts | 13° |
| 2026-05-06 09:42 | -30.10380 | 152.89398 | 35109 ft | 469 kts | 13° |
| 2026-05-06 09:42 | -30.04297 | 152.92187 | 35105 ft | 469 kts | 12° |
| 2026-05-06 09:43 | -29.98252 | 152.94946 | 35107 ft | 470 kts | 12° |
| 2026-05-06 09:43 | -29.92166 | 152.97721 | 35106 ft | 469 kts | 12° |
| 2026-05-06 09:44 | -29.86077 | 153.00491 | 35107 ft | 469 kts | 12° |
| 2026-05-06 09:44 | -29.79998 | 153.03255 | 35103 ft | 469 kts | 12° |
| 2026-05-06 09:45 | -29.73915 | 153.06018 | 35104 ft | 469 kts | 12° |
| 2026-05-06 09:45 | -29.67876 | 153.08759 | 35104 ft | 470 kts | 12° |
| 2026-05-06 09:46 | -29.61794 | 153.11521 | 35100 ft | 470 kts | 12° |
| 2026-05-06 09:46 | -29.55702 | 153.14278 | 35102 ft | 470 kts | 11° |
| 2026-05-06 09:47 | -29.52650 | 153.15653 | 34723 ft | 471 kts | 12° |
| 2026-05-06 09:47 | -29.49607 | 153.17024 | 33821 ft | 466 kts | 12° |
| 2026-05-06 09:47 | -29.46584 | 153.18387 | 32281 ft | 468 kts | 13° |
| 2026-05-06 09:47 | -29.43538 | 153.19762 | 30764 ft | 470 kts | 14° |
| 2026-05-06 09:48 | -29.40483 | 153.21141 | 29712 ft | 471 kts | 14° |
| 2026-05-06 09:48 | -29.37498 | 153.22494 | 29354 ft | 459 kts | 14° |
| 2026-05-06 09:48 | -29.34541 | 153.23834 | 28676 ft | 454 kts | 14° |
| 2026-05-06 09:48 | -29.31612 | 153.25155 | 28031 ft | 449 kts | 14° |
| 2026-05-06 09:49 | -29.28718 | 153.26455 | 27396 ft | 444 kts | 14° |
| 2026-05-06 09:49 | -29.25856 | 153.27740 | 26763 ft | 439 kts | 15° |
| 2026-05-06 09:49 | -29.23017 | 153.29014 | 26139 ft | 435 kts | 15° |
| 2026-05-06 09:49 | -29.20204 | 153.30275 | 25521 ft | 432 kts | 15° |
| 2026-05-06 09:50 | -29.18355 | 153.31102 | 25116 ft | 429 kts | 15° |
| 2026-05-06 09:50 | -29.14680 | 153.32743 | 24307 ft | 425 kts | 15° |
| 2026-05-06 09:50 | -29.11930 | 153.33972 | 23720 ft | 422 kts | 15° |
| 2026-05-06 09:50 | -29.09204 | 153.35193 | 23087 ft | 418 kts | 15° |
| 2026-05-06 09:51 | -29.06515 | 153.36401 | 22542 ft | 412 kts | 15° |
| 2026-05-06 09:51 | -29.04719 | 153.37207 | 22187 ft | 408 kts | 16° |
| 2026-05-06 09:51 | -29.02121 | 153.38371 | 21669 ft | 404 kts | 16° |
| 2026-05-06 09:51 | -28.99518 | 153.39534 | 21160 ft | 400 kts | 16° |
| 2026-05-06 09:52 | -28.96936 | 153.40685 | 20654 ft | 396 kts | 16° |
| 2026-05-06 09:52 | -28.94377 | 153.41823 | 20131 ft | 393 kts | 16° |
| 2026-05-06 09:52 | -28.91836 | 153.42955 | 19621 ft | 390 kts | 16° |
| 2026-05-06 09:52 | -28.89310 | 153.44081 | 19083 ft | 387 kts | 17° |
| 2026-05-06 09:53 | -28.86807 | 153.45199 | 18573 ft | 384 kts | 17° |
| 2026-05-06 09:53 | -28.84329 | 153.46303 | 18035 ft | 380 kts | 17° |
| 2026-05-06 09:53 | -28.81880 | 153.47395 | 17537 ft | 375 kts | 17° |
| 2026-05-06 09:53 | -28.79456 | 153.48478 | 17027 ft | 370 kts | 17° |
| 2026-05-06 09:54 | -28.77076 | 153.49539 | 16532 ft | 365 kts | 17° |
| 2026-05-06 09:54 | -28.74718 | 153.50586 | 16030 ft | 362 kts | 17° |
| 2026-05-06 09:54 | -28.72386 | 153.51620 | 15532 ft | 358 kts | 17° |
| 2026-05-06 09:54 | -28.70069 | 153.52646 | 15035 ft | 355 kts | 18° |
| 2026-05-06 09:55 | -28.67774 | 153.53662 | 14542 ft | 352 kts | 18° |
| 2026-05-06 09:55 | -28.65523 | 153.54660 | 14055 ft | 349 kts | 18° |
| 2026-05-06 09:55 | -28.63266 | 153.55660 | 13524 ft | 347 kts | 18° |
| 2026-05-06 09:55 | -28.61027 | 153.56652 | 13029 ft | 343 kts | 18° |
| 2026-05-06 09:56 | -28.58812 | 153.57634 | 12540 ft | 340 kts | 18° |
| 2026-05-06 09:56 | -28.56613 | 153.58609 | 12051 ft | 338 kts | 18° |
| 2026-05-06 09:56 | -28.54427 | 153.59580 | 11553 ft | 336 kts | 19° |
| 2026-05-06 09:56 | -28.52248 | 153.60542 | 11074 ft | 335 kts | 18° |
| 2026-05-06 09:57 | -28.50056 | 153.61435 | 10682 ft | 331 kts | 16° |
| 2026-05-06 09:57 | -28.47912 | 153.62247 | 10553 ft | 319 kts | 15° |
| 2026-05-06 09:57 | -28.45861 | 153.63000 | 10438 ft | 308 kts | 15° |
| 2026-05-06 09:57 | -28.43848 | 153.63733 | 10257 ft | 300 kts | 15° |
| 2026-05-06 09:58 | -28.41878 | 153.64454 | 10113 ft | 296 kts | 15° |
| 2026-05-06 09:58 | -28.39917 | 153.65180 | 9951 ft | 296 kts | 16° |
| 2026-05-06 09:58 | -28.37931 | 153.65914 | 9470 ft | 300 kts | 16° |
| 2026-05-06 09:58 | -28.35959 | 153.66634 | 9178 ft | 296 kts | 16° |
| 2026-05-06 09:59 | -28.33998 | 153.67345 | 8817 ft | 295 kts | 15° |
| 2026-05-06 09:59 | -28.32045 | 153.68049 | 8474 ft | 293 kts | 15° |
| 2026-05-06 09:59 | -28.30086 | 153.68671 | 8131 ft | 290 kts | 7° |
| 2026-05-06 09:59 | -28.28103 | 153.68750 | 7566 ft | 283 kts | 351° |
| 2026-05-06 10:00 | -28.26238 | 153.68223 | 6973 ft | 278 kts | 336° |
| 2026-05-06 10:00 | -28.24484 | 153.67264 | 6345 ft | 275 kts | 332° |
| 2026-05-06 10:00 | -28.22788 | 153.66314 | 5715 ft | 274 kts | 333° |
| 2026-05-06 10:00 | -28.21079 | 153.65364 | 5229 ft | 268 kts | 333° |
| 2026-05-06 10:01 | -28.19457 | 153.64467 | 5064 ft | 251 kts | 334° |
| 2026-05-06 10:01 | -28.17939 | 153.63629 | 4959 ft | 236 kts | 334° |
| 2026-05-06 10:01 | -28.16485 | 153.62828 | 4844 ft | 227 kts | 334° |
| 2026-05-06 10:01 | -28.15120 | 153.62004 | 4739 ft | 219 kts | 325° |
| 2026-05-06 10:02 | -28.13911 | 153.60930 | 4428 ft | 222 kts | 321° |
| 2026-05-06 10:02 | -28.12710 | 153.59828 | 4126 ft | 222 kts | 321° |
| 2026-05-06 10:02 | -28.11503 | 153.58721 | 3830 ft | 223 kts | 321° |
| 2026-05-06 10:02 | -28.10310 | 153.57628 | 3527 ft | 223 kts | 321° |
| 2026-05-06 10:03 | -28.09088 | 153.56501 | 3224 ft | 224 kts | 318° |
| 2026-05-06 10:03 | -28.08094 | 153.55203 | 2956 ft | 218 kts | 302° |
| 2026-05-06 10:03 | -28.07437 | 153.53668 | 2644 ft | 216 kts | 286° |
| 2026-05-06 10:03 | -28.07158 | 153.52017 | 2363 ft | 210 kts | 271° |
| 2026-05-06 10:04 | -28.07240 | 153.50434 | 2083 ft | 193 kts | 256° |
| 2026-05-06 10:04 | -28.07657 | 153.49076 | 1847 ft | 171 kts | 236° |
| 2026-05-06 10:04 | -28.08354 | 153.48133 | 1625 ft | 146 kts | 217° |
| 2026-05-06 10:04 | -28.09184 | 153.47561 | 1434 ft | 136 kts | 199° |
| 2026-05-06 10:05 | -28.10089 | 153.47297 | 1263 ft | 132 kts | 184° |
| 2026-05-06 10:05 | -28.10987 | 153.47331 | 1088 ft | 131 kts | 169° |
| 2026-05-06 10:05 | -28.11850 | 153.47653 | 932 ft | 130 kts | 155° |
| 2026-05-06 10:05 | -28.12648 | 153.48165 | 735 ft | 132 kts | 151° |
| 2026-05-06 10:06 | -28.13440 | 153.48683 | 535 ft | 131 kts | 157° |
| 2026-05-06 10:06 | -28.14224 | 153.49163 | 372 ft | 127 kts | 154° |
| 2026-05-06 10:06 | -28.14999 | 153.49662 | 211 ft | 127 kts | 153° |
| 2026-05-06 10:06 | -28.15776 | 153.50151 | 47 ft | 127 kts | 154° |
| 2026-05-06 10:07 | -28.16435 | 153.50567 | 27 ft | 73 kts | 150° |
| 2026-05-06 10:07 | -28.16753 | 153.50770 | 28 ft | 43 kts | 151° |
| 2026-05-06 10:07 | -28.16913 | 153.50869 | 28 ft | 18 kts | 146° |
| 2026-05-06 10:07 | -28.16937 | 153.50961 | 27 ft | 11 kts | 70° |
| 2026-05-06 10:08 | -28.16905 | 153.51031 | 26 ft | 11 kts | 61° |
| 2026-05-06 10:08 | -28.16860 | 153.51113 | 26 ft | 13 kts | 40° |
| 2026-05-06 10:08 | -28.16767 | 153.51102 | 28 ft | 16 kts | 331° |
| 2026-05-06 10:08 | -28.16682 | 153.51047 | 30 ft | 15 kts | 330° |
| 2026-05-06 10:09 | -28.16608 | 153.51001 | 31 ft | 5 kts | 341° |
| 2026-05-06 10:09 | -28.16578 | 153.51032 | 27 ft | 6 kts | 61° |
| 2026-05-06 10:09 | -28.16566 | 153.51059 | 28 ft | 2 kts | 60° |
| 2026-05-06 10:09 | -28.16559 | 153.51071 | 27 ft | 1 kts | 60° |
| 2026-05-06 10:10 | -28.16559 | 153.51072 | 26 ft | 0 kts | 60° |